Time;durP1;ratioP1;P1;durP2;ratioP2;P2;SDS_P1;SDS_P2;PMS_P1;PMS_P2;Temp;Humidity;BMP_temperature;BMP_pressure;BME280_temperature;BME280_humidity;BME280_pressure;Samples;Min_cycle;Max_cycle;Signal;HPM_P1;HPM_P2
2023/05/08 00:00:44;;;;;;;20.37;17.97;;;;;;;;;;5054465;28;20632;-68
2023/05/08 00:03:10;;;;;;;22.23;17.63;;;;;;;;;;5072073;28;20213;-68
2023/05/08 00:05:36;;;;;;;19.43;17.23;;;;;;;;;;5066066;28;20178;-68
2023/05/08 00:08:02;;;;;;;18.80;16.90;;;;;;;;;;5053909;28;20178;-67
2023/05/08 00:10:29;;;;;;;19.90;17.97;;;;;;;;;;5053872;28;20171;-68
2023/05/08 00:12:55;;;;;;;20.17;18.03;;;;;;;;;;5035766;28;20194;-68
2023/05/08 00:15:21;;;;;;;19.67;17.63;;;;;;;;;;5036313;28;20185;-68
2023/05/08 00:17:47;;;;;;;21.57;19.07;;;;;;;;;;5037545;28;20206;-67
2023/05/08 00:20:13;;;;;;;22.70;20.17;;;;;;;;;;5053619;28;20265;-68
2023/05/08 00:22:39;;;;;;;24.60;19.60;;;;;;;;;;5035574;28;20763;-67
2023/05/08 00:25:05;;;;;;;23.07;20.67;;;;;;;;;;5053879;28;20181;-67
2023/05/08 00:27:32;;;;;;;23.43;20.93;;;;;;;;;;5036249;28;20209;-68
2023/05/08 00:29:58;;;;;;;23.27;21.00;;;;;;;;;;5054271;28;20197;-69
2023/05/08 00:32:24;;;;;;;24.57;22.07;;;;;;;;;;5036983;28;20241;-67
2023/05/08 00:34:50;;;;;;;31.07;22.60;;;;;;;;;;5037168;28;20210;-68
2023/05/08 00:37:16;;;;;;;24.23;21.70;;;;;;;;;;5054535;28;20205;-67
2023/05/08 00:39:42;;;;;;;25.50;23.00;;;;;;;;;;5055243;28;20220;-68
2023/05/08 00:42:08;;;;;;;25.83;23.03;;;;;;;;;;5037616;28;20198;-67
2023/05/08 00:44:34;;;;;;;25.80;23.20;;;;;;;;;;5061571;28;20182;-68
2023/05/08 00:47:00;;;;;;;26.93;23.70;;;;;;;;;;5061088;28;20179;-67
2023/05/08 00:49:26;;;;;;;27.93;25.03;;;;;;;;;;5060278;28;20184;-68
2023/05/08 00:51:54;;;;;;;30.60;23.83;;;;;;;;;;5043069;28;20178;-67
2023/05/08 00:54:20;;;;;;;28.63;25.47;;;;;;;;;;5042364;28;20190;-67
2023/05/08 00:56:46;;;;;;;30.97;25.47;;;;;;;;;;5060531;28;20202;-67
2023/05/08 00:59:13;;;;;;;27.70;24.83;;;;;;;;;;5060229;28;20550;-67
2023/05/08 01:01:40;;;;;;;27.00;24.20;;;;;;;;;;5061026;28;20182;-67
2023/05/08 01:04:06;;;;;;;27.63;24.83;;;;;;;;;;5042927;28;20202;-67
2023/05/08 01:06:36;;;;;;;27.80;24.57;;;;;;;;;;5059998;28;20235;-67
2023/05/08 01:09:02;;;;;;;28.37;25.40;;;;;;;;;;5042674;28;20656;-68
2023/05/08 01:11:30;;;;;;;27.40;24.80;;;;;;;;;;5042300;28;20269;-68
2023/05/08 01:14:05;;;;;;;32.47;25.67;;;;;;;;;;5042605;28;20280;-67
2023/05/08 01:16:32;;;;;;;28.17;25.17;;;;;;;;;;5061170;28;20218;-67
2023/05/08 01:19:06;;;;;;;31.47;24.77;;;;;;;;;;5042154;28;20182;-70
2023/05/08 01:21:45;;;;;;;28.90;26.10;;;;;;;;;;5042732;28;20181;-67
2023/05/08 01:24:20;;;;;;;29.30;26.17;;;;;;;;;;5060315;28;20257;-67
2023/05/08 01:27:04;;;;;;;31.53;26.70;;;;;;;;;;5059748;28;20185;-67
2023/05/08 01:29:42;;;;;;;29.50;26.47;;;;;;;;;;5059927;28;20217;-69
2023/05/08 01:32:11;;;;;;;31.20;28.17;;;;;;;;;;5059861;28;20202;-68
2023/05/08 01:34:40;;;;;;;30.43;27.20;;;;;;;;;;5059534;28;20186;-68
2023/05/08 01:37:10;;;;;;;31.07;27.83;;;;;;;;;;5059859;28;20233;-68
2023/05/08 01:39:55;;;;;;;30.13;27.13;;;;;;;;;;5060290;28;20219;-68
2023/05/08 01:42:40;;;;;;;29.40;26.40;;;;;;;;;;5041906;28;20241;-68
2023/05/08 01:45:19;;;;;;;29.37;26.57;;;;;;;;;;5059667;28;20596;-68
2023/05/08 01:47:47;;;;;;;30.60;27.57;;;;;;;;;;5060627;28;20169;-68
2023/05/08 01:50:16;;;;;;;30.00;27.10;;;;;;;;;;5041619;28;20187;-67
2023/05/08 01:52:45;;;;;;;30.63;27.63;;;;;;;;;;5041689;28;20218;-68
2023/05/08 01:55:15;;;;;;;31.03;27.77;;;;;;;;;;5059428;28;20231;-68
2023/05/08 01:57:49;;;;;;;33.17;27.57;;;;;;;;;;5059951;28;20202;-68
2023/05/08 02:00:17;;;;;;;30.60;27.27;;;;;;;;;;5041334;28;20173;-68
2023/05/08 02:02:44;;;;;;;31.57;28.33;;;;;;;;;;5043857;28;20194;-68
2023/05/08 02:05:11;;;;;;;32.63;29.43;;;;;;;;;;5045669;28;20175;-68
2023/05/08 02:07:38;;;;;;;31.47;28.17;;;;;;;;;;5061746;28;20182;-67
2023/05/08 02:10:04;;;;;;;32.03;28.60;;;;;;;;;;5060825;28;20205;-68
2023/05/08 02:12:31;;;;;;;31.80;28.67;;;;;;;;;;5044696;28;20198;-68
2023/05/08 02:14:58;;;;;;;30.93;27.73;;;;;;;;;;5060483;28;20178;-68
2023/05/08 02:17:24;;;;;;;31.57;28.30;;;;;;;;;;5060562;28;20202;-67
2023/05/08 02:19:51;;;;;;;31.83;28.67;;;;;;;;;;5041739;28;20185;-67
2023/05/08 02:22:19;;;;;;;32.27;28.93;;;;;;;;;;5058976;28;20194;-67
2023/05/08 02:24:45;;;;;;;30.90;27.90;;;;;;;;;;5059848;28;20224;-68
2023/05/08 02:27:11;;;;;;;31.20;27.43;;;;;;;;;;5060536;28;20213;-68
2023/05/08 02:29:38;;;;;;;30.23;27.23;;;;;;;;;;5059745;28;20178;-69
2023/05/08 02:32:05;;;;;;;31.30;27.23;;;;;;;;;;5042076;28;20194;-67
2023/05/08 02:34:31;;;;;;;30.97;27.97;;;;;;;;;;5059304;28;20190;-67
2023/05/08 02:36:58;;;;;;;31.33;28.27;;;;;;;;;;5060099;28;20198;-67
2023/05/08 02:39:25;;;;;;;31.93;28.67;;;;;;;;;;5059932;28;20200;-67
2023/05/08 02:41:51;;;;;;;34.37;30.87;;;;;;;;;;5062631;28;20175;-67
2023/05/08 02:44:18;;;;;;;32.13;29.03;;;;;;;;;;5060586;28;20699;-68
2023/05/08 02:46:56;;;;;;;30.80;27.80;;;;;;;;;;5041280;28;20190;-68
2023/05/08 02:49:38;;;;;;;32.30;28.93;;;;;;;;;;5062193;28;20178;-67
2023/05/08 02:52:06;;;;;;;33.07;29.67;;;;;;;;;;5041729;28;20704;-68
2023/05/08 02:54:44;;;;;;;33.07;29.77;;;;;;;;;;5059979;28;20167;-67
2023/05/08 02:57:27;;;;;;;34.33;30.83;;;;;;;;;;5059798;28;20542;-68
2023/05/08 02:59:59;;;;;;;34.60;31.10;;;;;;;;;;5040395;28;20170;-68
2023/05/08 03:02:31;;;;;;;34.37;30.57;;;;;;;;;;5040479;28;20206;-68
2023/05/08 03:05:02;;;;;;;34.07;30.50;;;;;;;;;;5057369;28;20173;-68
2023/05/08 03:07:28;;;;;;;34.07;30.43;;;;;;;;;;5038759;28;20179;-68
2023/05/08 03:09:58;;;;;;;34.40;30.70;;;;;;;;;;5040159;28;20190;-67
2023/05/08 03:12:26;;;;;;;36.53;31.40;;;;;;;;;;5057271;28;20202;-67
2023/05/08 03:15:11;;;;;;;34.67;30.97;;;;;;;;;;5057694;28;20179;-68
2023/05/08 03:17:39;;;;;;;33.93;30.53;;;;;;;;;;5058176;28;20198;-67
2023/05/08 03:20:06;;;;;;;36.57;32.23;;;;;;;;;;5039601;28;20186;-68
2023/05/08 03:22:34;;;;;;;34.17;30.63;;;;;;;;;;5057510;28;20607;-67
2023/05/08 03:25:01;;;;;;;37.10;33.10;;;;;;;;;;5056818;28;20193;-67
2023/05/08 03:27:29;;;;;;;37.37;31.80;;;;;;;;;;5056119;28;20185;-68
2023/05/08 03:29:56;;;;;;;36.70;32.80;;;;;;;;;;5038301;28;20189;-69
2023/05/08 03:32:24;;;;;;;35.00;31.53;;;;;;;;;;5055491;28;20270;-68
2023/05/08 03:34:50;;;;;;;35.67;31.90;;;;;;;;;;5036416;28;20558;-68
2023/05/08 03:37:17;;;;;;;36.30;32.27;;;;;;;;;;5054140;28;20201;-68
2023/05/08 03:39:43;;;;;;;35.23;31.43;;;;;;;;;;5036277;28;20174;-68
2023/05/08 03:42:09;;;;;;;36.30;32.60;;;;;;;;;;5036207;28;20297;-68
2023/05/08 03:44:35;;;;;;;39.37;32.47;;;;;;;;;;5036036;28;20182;-68
2023/05/08 03:47:01;;;;;;;35.60;31.90;;;;;;;;;;5036245;28;20182;-68
2023/05/08 03:49:29;;;;;;;35.43;31.83;;;;;;;;;;5054235;28;20641;-68
2023/05/08 03:51:55;;;;;;;36.53;32.63;;;;;;;;;;5053855;28;20211;-68
2023/05/08 03:54:24;;;;;;;37.23;32.40;;;;;;;;;;5036236;28;20190;-68
2023/05/08 03:56:50;;;;;;;35.23;31.20;;;;;;;;;;5036016;28;20209;-68
2023/05/08 03:59:21;;;;;;;35.60;30.17;;;;;;;;;;5053775;28;20207;-67
2023/05/08 04:01:49;;;;;;;35.97;29.17;;;;;;;;;;5036042;28;20232;-67
2023/05/08 04:04:33;;;;;;;34.53;30.13;;;;;;;;;;5055039;28;20197;-68
2023/05/08 04:07:05;;;;;;;32.03;28.63;;;;;;;;;;5055684;28;20254;-67
2023/05/08 04:09:35;;;;;;;32.03;28.63;;;;;;;;;;5037622;28;20204;-68
2023/05/08 04:12:15;;;;;;;32.23;26.33;;;;;;;;;;5037512;28;20555;-68
2023/05/08 04:14:47;;;;;;;27.23;24.27;;;;;;;;;;5055342;28;20687;-68
2023/05/08 04:17:14;;;;;;;25.40;21.73;;;;;;;;;;5055281;28;20186;-67
2023/05/08 04:19:44;;;;;;;25.07;21.60;;;;;;;;;;5035677;28;20178;-68
2023/05/08 04:22:11;;;;;;;24.13;21.70;;;;;;;;;;5035867;28;20279;-68
2023/05/08 04:24:40;;;;;;;21.97;19.67;;;;;;;;;;5053553;28;20563;-68
2023/05/08 04:27:06;;;;;;;20.20;18.00;;;;;;;;;;5053546;28;20182;-68
2023/05/08 04:29:32;;;;;;;21.63;18.60;;;;;;;;;;5035446;28;20675;-68
2023/05/08 04:32:00;;;;;;;17.97;16.17;;;;;;;;;;5035813;28;20186;-68
2023/05/08 04:34:26;;;;;;;20.33;16.87;;;;;;;;;;5054121;28;20232;-68
2023/05/08 04:36:52;;;;;;;18.53;16.53;;;;;;;;;;5053851;28;20679;-68
2023/05/08 04:39:18;;;;;;;18.10;16.20;;;;;;;;;;5035659;28;20236;-68
2023/05/08 04:41:46;;;;;;;17.60;15.37;;;;;;;;;;5035313;28;20193;-68
2023/05/08 04:44:13;;;;;;;18.33;15.27;;;;;;;;;;5088682;22;20221;-63
2023/05/08 04:46:39;;;;;;;17.00;14.97;;;;;;;;;;5073304;28;20231;-64
2023/05/08 04:49:05;;;;;;;16.30;14.53;;;;;;;;;;5055182;28;20234;-66
2023/05/08 04:51:31;;;;;;;16.70;14.60;;;;;;;;;;5055147;28;20277;-66
2023/05/08 04:53:57;;;;;;;15.77;14.13;;;;;;;;;;5073402;28;20193;-66
2023/05/08 04:56:23;;;;;;;19.03;14.53;;;;;;;;;;5054872;28;20220;-66
2023/05/08 04:58:50;;;;;;;15.53;13.93;;;;;;;;;;5054949;28;20173;-66
2023/05/08 05:01:15;;;;;;;14.80;13.23;;;;;;;;;;5054943;28;20197;-65
2023/05/08 05:03:41;;;;;;;19.60;14.10;;;;;;;;;;5056561;28;20713;-67
2023/05/08 05:06:07;;;;;;;15.20;12.93;;;;;;;;;;5074816;28;20647;-66
2023/05/08 05:08:33;;;;;;;16.00;13.30;;;;;;;;;;5054874;28;20549;-66
2023/05/08 05:10:59;;;;;;;18.03;12.93;;;;;;;;;;5072953;28;20182;-66
2023/05/08 05:13:25;;;;;;;15.17;13.63;;;;;;;;;;5055024;28;20289;-66
2023/05/08 05:15:53;;;;;;;17.17;15.23;;;;;;;;;;5073283;28;20205;-66
2023/05/08 05:18:19;;;;;;;13.77;12.37;;;;;;;;;;5072637;28;20605;-66
2023/05/08 05:20:45;;;;;;;14.63;13.20;;;;;;;;;;5073111;28;20248;-68
2023/05/08 05:23:11;;;;;;;14.00;12.47;;;;;;;;;;5054470;28;20281;-66
2023/05/08 05:25:38;;;;;;;12.60;11.33;;;;;;;;;;5054670;28;20181;-66
2023/05/08 05:28:04;;;;;;;12.90;11.60;;;;;;;;;;5054480;28;20190;-66
2023/05/08 05:30:30;;;;;;;14.13;11.63;;;;;;;;;;5055791;28;20216;-66
2023/05/08 05:32:56;;;;;;;15.43;12.07;;;;;;;;;;5058199;28;20590;-66
2023/05/08 05:35:22;;;;;;;12.80;11.63;;;;;;;;;;5058261;28;20213;-66
2023/05/08 05:37:48;;;;;;;15.73;12.33;;;;;;;;;;5076348;28;20272;-66
2023/05/08 05:40:14;;;;;;;14.10;12.10;;;;;;;;;;5076070;28;20178;-66
2023/05/08 05:42:40;;;;;;;14.33;12.93;;;;;;;;;;5076092;28;20185;-66
2023/05/08 05:45:06;;;;;;;13.73;12.07;;;;;;;;;;5075805;28;20614;-66
2023/05/08 05:47:32;;;;;;;12.90;11.70;;;;;;;;;;5076570;28;20180;-66
2023/05/08 05:49:58;;;;;;;13.97;11.90;;;;;;;;;;5075859;28;20182;-66
2023/05/08 05:52:24;;;;;;;13.07;11.87;;;;;;;;;;5075850;28;20178;-66
2023/05/08 05:54:50;;;;;;;16.30;12.37;;;;;;;;;;5075711;28;20608;-67
2023/05/08 05:57:16;;;;;;;15.97;12.93;;;;;;;;;;5075807;28;20237;-66
2023/05/08 05:59:42;;;;;;;17.33;12.00;;;;;;;;;;5075950;28;20256;-66
2023/05/08 06:02:09;;;;;;;15.80;12.10;;;;;;;;;;5075686;28;20386;-67
2023/05/08 06:04:35;;;;;;;14.87;11.80;;;;;;;;;;5075644;28;20219;-66
2023/05/08 06:07:01;;;;;;;13.50;11.57;;;;;;;;;;5075514;28;20174;-66
2023/05/08 06:09:27;;;;;;;12.70;11.50;;;;;;;;;;5057699;28;20227;-66
2023/05/08 06:11:53;;;;;;;12.33;11.03;;;;;;;;;;5057881;28;20729;-66
2023/05/08 06:14:19;;;;;;;12.93;11.53;;;;;;;;;;5075404;28;20194;-66
2023/05/08 06:16:45;;;;;;;12.47;10.60;;;;;;;;;;5076173;28;20292;-66
2023/05/08 06:19:11;;;;;;;12.30;11.07;;;;;;;;;;5057696;28;20177;-66
2023/05/08 06:21:38;;;;;;;13.77;11.47;;;;;;;;;;5075952;28;20185;-66
2023/05/08 06:24:05;;;;;;;14.50;13.10;;;;;;;;;;5075365;28;20197;-66
2023/05/08 06:26:31;;;;;;;12.37;11.17;;;;;;;;;;5075863;28;20169;-66
2023/05/08 06:28:57;;;;;;;12.27;11.07;;;;;;;;;;5057848;28;20177;-66
2023/05/08 06:31:23;;;;;;;13.07;11.67;;;;;;;;;;5075336;28;20174;-66
2023/05/08 06:33:49;;;;;;;12.93;11.67;;;;;;;;;;5075642;28;20202;-66
2023/05/08 06:36:15;;;;;;;11.80;10.80;;;;;;;;;;5075255;28;20223;-66
2023/05/08 06:38:41;;;;;;;12.50;11.20;;;;;;;;;;5057424;28;20173;-66
2023/05/08 06:41:07;;;;;;;11.93;10.93;;;;;;;;;;5074971;28;20177;-67
2023/05/08 06:43:33;;;;;;;11.77;10.67;;;;;;;;;;5074774;28;20210;-66
2023/05/08 06:45:59;;;;;;;13.27;11.87;;;;;;;;;;5075107;28;20549;-66
2023/05/08 06:48:27;;;;;;;13.30;12.00;;;;;;;;;;5075074;28;20205;-66
2023/05/08 06:50:54;;;;;;;13.10;11.70;;;;;;;;;;5075144;28;20639;-66
2023/05/08 06:53:20;;;;;;;21.63;13.20;;;;;;;;;;5075320;28;20698;-66
2023/05/08 06:55:46;;;;;;;21.50;14.40;;;;;;;;;;5075324;28;20284;-66
2023/05/08 06:58:12;;;;;;;19.27;15.00;;;;;;;;;;5075155;28;20201;-67
2023/05/08 07:00:38;;;;;;;16.77;14.93;;;;;;;;;;5057236;28;20636;-65
2023/05/08 07:03:04;;;;;;;22.77;17.50;;;;;;;;;;5074597;28;20654;-64
2023/05/08 07:05:30;;;;;;;14.10;12.60;;;;;;;;;;5074914;28;20632;-66
2023/05/08 07:07:55;;;;;;;13.00;11.90;;;;;;;;;;5074446;28;20591;-66
2023/05/08 07:10:21;;;;;;;13.33;11.93;;;;;;;;;;5074674;28;20213;-66
2023/05/08 07:12:51;;;;;;;14.80;12.27;;;;;;;;;;5056269;28;20189;-68
2023/05/08 07:15:17;;;;;;;15.33;13.73;;;;;;;;;;5056564;28;20212;-68
2023/05/08 07:17:43;;;;;;;17.47;13.80;;;;;;;;;;5056447;28;20201;-67
2023/05/08 07:20:09;;;;;;;20.57;13.73;;;;;;;;;;5074154;28;20231;-66
2023/05/08 07:22:35;;;;;;;16.17;14.07;;;;;;;;;;5074208;28;20213;-66
2023/05/08 07:25:01;;;;;;;19.97;14.23;;;;;;;;;;5056129;28;20229;-66
2023/05/08 07:27:27;;;;;;;19.90;15.80;;;;;;;;;;5074105;28;20173;-67
2023/05/08 07:29:53;;;;;;;13.47;12.10;;;;;;;;;;5073954;28;20206;-67
2023/05/08 07:32:19;;;;;;;13.67;12.37;;;;;;;;;;5056119;28;20181;-67
2023/05/08 07:34:45;;;;;;;12.97;11.73;;;;;;;;;;5073931;28;20197;-67
2023/05/08 07:37:11;;;;;;;13.00;11.67;;;;;;;;;;5074055;28;20213;-67
2023/05/08 07:39:37;;;;;;;14.33;12.93;;;;;;;;;;5073935;28;20181;-67
2023/05/08 07:42:04;;;;;;;14.20;12.87;;;;;;;;;;5073851;28;20217;-67
2023/05/08 07:44:32;;;;;;;15.10;13.70;;;;;;;;;;5055588;28;20227;-67
2023/05/08 07:46:58;;;;;;;16.57;14.73;;;;;;;;;;5055959;28;20720;-68
2023/05/08 07:49:24;;;;;;;16.07;14.57;;;;;;;;;;5074060;28;20182;-67
2023/05/08 07:51:50;;;;;;;16.23;14.63;;;;;;;;;;5073630;28;20262;-66
2023/05/08 07:54:16;;;;;;;16.67;14.87;;;;;;;;;;5073335;28;20197;-68
2023/05/08 07:56:42;;;;;;;16.47;14.77;;;;;;;;;;5073369;28;20205;-67
2023/05/08 07:59:08;;;;;;;16.07;14.67;;;;;;;;;;5073563;28;20181;-69
2023/05/08 08:01:34;;;;;;;15.67;14.27;;;;;;;;;;5073657;28;20180;-67
2023/05/08 08:03:59;;;;;;;16.20;14.57;;;;;;;;;;5073408;28;20331;-67
2023/05/08 08:06:25;;;;;;;17.13;15.33;;;;;;;;;;5073595;28;20178;-67
2023/05/08 08:08:51;;;;;;;16.87;15.37;;;;;;;;;;5073668;28;20177;-68
2023/05/08 08:11:18;;;;;;;17.57;15.73;;;;;;;;;;5073375;28;20202;-67
2023/05/08 08:13:44;;;;;;;17.63;15.83;;;;;;;;;;5073240;28;20284;-67
2023/05/08 08:16:10;;;;;;;17.27;15.57;;;;;;;;;;5073512;28;20257;-67
2023/05/08 08:18:36;;;;;;;17.73;15.93;;;;;;;;;;5055294;28;20209;-67
2023/05/08 08:21:06;;;;;;;16.47;14.77;;;;;;;;;;5073261;28;20169;-67
2023/05/08 08:23:32;;;;;;;13.90;12.63;;;;;;;;;;5073427;28;20185;-67
2023/05/08 08:25:58;;;;;;;13.73;10.07;;;;;;;;;;5073473;28;20177;-67
2023/05/08 08:28:24;;;;;;;11.00;10.07;;;;;;;;;;5073597;28;20185;-67
2023/05/08 08:30:50;;;;;;;11.00;10.10;;;;;;;;;;5073077;28;20662;-66
2023/05/08 08:33:16;;;;;;;10.50;9.60;;;;;;;;;;5073368;28;20198;-69
2023/05/08 08:35:42;;;;;;;11.77;10.67;;;;;;;;;;5073577;28;20549;-68
2023/05/08 08:38:08;;;;;;;12.60;11.20;;;;;;;;;;5073604;28;20611;-67
2023/05/08 08:40:38;;;;;;;12.57;11.37;;;;;;;;;;5073293;28;20173;-67
2023/05/08 08:43:04;;;;;;;15.13;11.20;;;;;;;;;;5055287;28;20540;-67
2023/05/08 08:45:30;;;;;;;9.47;8.57;;;;;;;;;;5073723;28;20174;-67
2023/05/08 08:48:00;;;;;;;8.87;7.97;;;;;;;;;;5073173;28;20181;-67
2023/05/08 08:50:30;;;;;;;9.67;8.57;;;;;;;;;;5055003;28;20733;-69
2023/05/08 08:53:00;;;;;;;10.00;9.00;;;;;;;;;;5072856;28;20188;-67
2023/05/08 08:55:26;;;;;;;9.73;8.80;;;;;;;;;;5073282;28;20239;-67
2023/05/08 08:58:05;;;;;;;11.00;9.87;;;;;;;;;;5054796;28;20245;-67
2023/05/08 09:00:31;;;;;;;18.03;16.23;;;;;;;;;;5073207;28;20536;-67
2023/05/08 09:02:58;;;;;;;12.47;11.27;;;;;;;;;;5072946;28;20252;-67
2023/05/08 09:05:25;;;;;;;11.87;10.67;;;;;;;;;;5074022;28;20648;-67
2023/05/08 09:07:53;;;;;;;14.03;10.60;;;;;;;;;;5076798;28;20603;-67
2023/05/08 09:10:19;;;;;;;12.20;11.20;;;;;;;;;;5076817;28;20180;-67
2023/05/08 09:12:47;;;;;;;13.00;11.60;;;;;;;;;;5058818;28;20660;-67
2023/05/08 09:15:13;;;;;;;13.17;11.87;;;;;;;;;;5076581;28;20243;-67
2023/05/08 09:17:39;;;;;;;10.77;9.70;;;;;;;;;;5076427;28;20202;-67
2023/05/08 09:20:05;;;;;;;13.43;10.27;;;;;;;;;;5058496;28;20640;-69
2023/05/08 09:22:32;;;;;;;10.97;10.07;;;;;;;;;;5058621;28;20182;-67
2023/05/08 09:24:59;;;;;;;10.20;9.17;;;;;;;;;;5077167;28;20198;-67
2023/05/08 09:27:26;;;;;;;8.43;7.63;;;;;;;;;;5078520;28;20178;-67
2023/05/08 09:29:57;;;;;;;8.70;7.90;;;;;;;;;;5077088;28;20664;-67
2023/05/08 09:32:24;;;;;;;10.77;9.77;;;;;;;;;;5059829;28;20178;-66
2023/05/08 09:34:53;;;;;;;12.20;11.13;;;;;;;;;;5076251;28;20194;-66
2023/05/08 09:37:19;;;;;;;10.83;9.40;;;;;;;;;;5076414;28;20205;-66
2023/05/08 09:39:46;;;;;;;10.57;9.67;;;;;;;;;;5058587;28;20182;-66
2023/05/08 09:42:12;;;;;;;10.70;9.63;;;;;;;;;;5059227;28;20174;-67
2023/05/08 09:44:51;;;;;;;10.37;9.03;;;;;;;;;;5076469;28;20213;-67
2023/05/08 09:47:21;;;;;;;14.03;12.37;;;;;;;;;;5058647;28;20177;-66
2023/05/08 09:50:01;;;;;;;13.50;12.07;;;;;;;;;;5076476;28;20174;-66
2023/05/08 09:52:27;;;;;;;11.50;10.30;;;;;;;;;;5076542;28;20186;-66
2023/05/08 09:54:58;;;;;;;13.47;10.47;;;;;;;;;;5076150;28;20202;-69
2023/05/08 09:57:24;;;;;;;9.53;8.73;;;;;;;;;;5076171;28;20201;-66
2023/05/08 09:59:50;;;;;;;11.10;9.23;;;;;;;;;;5076326;28;20178;-67
2023/05/08 10:02:16;;;;;;;9.53;8.50;;;;;;;;;;5075904;28;20178;-67
2023/05/08 10:04:42;;;;;;;8.73;7.83;;;;;;;;;;5076083;28;20198;-67
2023/05/08 10:07:08;;;;;;;10.17;7.10;;;;;;;;;;5076517;28;20181;-68
2023/05/08 10:09:34;;;;;;;10.33;8.03;;;;;;;;;;5075930;28;20204;-68
2023/05/08 10:12:00;;;;;;;8.60;7.70;;;;;;;;;;5075815;28;20182;-66
2023/05/08 10:14:26;;;;;;;7.97;6.33;;;;;;;;;;5075610;28;20204;-67
2023/05/08 10:16:53;;;;;;;7.30;6.60;;;;;;;;;;5075256;28;20209;-67
2023/05/08 10:19:20;;;;;;;8.67;6.67;;;;;;;;;;5075806;28;20170;-67
2023/05/08 10:21:47;;;;;;;11.80;9.43;;;;;;;;;;5075571;28;20250;-65
2023/05/08 10:24:17;;;;;;;13.40;8.90;;;;;;;;;;5075608;28;20197;-65
2023/05/08 10:26:48;;;;;;;7.37;6.67;;;;;;;;;;5076307;28;20177;-66
2023/05/08 10:29:20;;;;;;;10.67;9.53;;;;;;;;;;5057711;28;20173;-65
2023/05/08 10:31:49;;;;;;;10.47;9.43;;;;;;;;;;5057718;28;20177;-66
2023/05/08 10:34:19;;;;;;;10.47;9.47;;;;;;;;;;5075588;28;20216;-65
2023/05/08 10:36:46;;;;;;;9.00;8.10;;;;;;;;;;5074344;28;20400;-66
2023/05/08 10:39:15;;;;;;;8.20;7.40;;;;;;;;;;5075822;28;20263;-68
2023/05/08 10:41:41;;;;;;;10.37;9.23;;;;;;;;;;5075290;28;20644;-67
2023/05/08 10:44:08;;;;;;;10.73;9.25;;;;;;;;;;5074373;28;20407;-66
2023/05/08 10:46:39;;;;;;;13.50;8.77;;;;;;;;;;5057810;28;20186;-67
2023/05/08 10:51:38;;;;;;;10.47;7.77;;;;;;;;;;5053738;28;20729;-68
2023/05/08 10:54:06;;;;;;;13.27;11.73;;;;;;;;;;5053421;28;20388;-67
2023/05/08 10:56:32;;;;;;;10.20;8.97;;;;;;;;;;5054615;28;20202;-68
2023/05/08 10:58:58;;;;;;;11.10;8.50;;;;;;;;;;5036682;28;20235;-68
2023/05/08 11:01:25;;;;;;;9.67;8.43;;;;;;;;;;5034830;28;20232;-68
2023/05/08 11:03:53;;;;;;;9.80;8.80;;;;;;;;;;5034572;28;20558;-68
2023/05/08 11:06:38;;;;;;;11.33;9.60;;;;;;;;;;5034682;28;20179;-68
2023/05/08 11:09:04;;;;;;;9.17;8.17;;;;;;;;;;5034595;28;20183;-68
2023/05/08 11:11:32;;;;;;;9.37;8.47;;;;;;;;;;5034420;28;20176;-68
2023/05/08 11:14:07;;;;;;;9.30;8.33;;;;;;;;;;5034423;28;20597;-68
2023/05/08 11:17:02;;;;;;;14.07;8.50;;;;;;;;;;5034247;28;20183;-68
2023/05/08 11:19:28;;;;;;;13.93;9.23;;;;;;;;;;5016309;28;20195;-68
2023/05/08 11:22:13;;;;;;;10.00;9.10;;;;;;;;;;5016347;28;20662;-68
2023/05/08 11:24:40;;;;;;;10.70;9.77;;;;;;;;;;5034375;28;20577;-68
2023/05/08 11:27:06;;;;;;;12.47;9.97;;;;;;;;;;5034013;28;20183;-68
2023/05/08 11:29:32;;;;;;;12.57;11.10;;;;;;;;;;5015876;28;20206;-68
2023/05/08 11:31:59;;;;;;;14.00;10.80;;;;;;;;;;5016343;28;20182;-67
2023/05/08 11:34:43;;;;;;;11.23;9.90;;;;;;;;;;5034320;28;20270;-68
2023/05/08 11:37:10;;;;;;;10.90;8.77;;;;;;;;;;5034650;28;20692;-67
2023/05/08 11:39:36;;;;;;;9.50;8.67;;;;;;;;;;5016616;28;20203;-67
2023/05/08 11:42:20;;;;;;;10.13;9.13;;;;;;;;;;5016921;28;20175;-67
2023/05/08 11:44:46;;;;;;;10.97;8.40;;;;;;;;;;5034285;28;20703;-67
2023/05/08 11:47:16;;;;;;;11.03;9.13;;;;;;;;;;5016269;28;20278;-67
2023/05/08 11:49:42;;;;;;;9.17;8.27;;;;;;;;;;5033630;28;20591;-68
2023/05/08 11:52:08;;;;;;;8.83;7.77;;;;;;;;;;5034016;28;20668;-67
2023/05/08 11:54:34;;;;;;;8.90;8.10;;;;;;;;;;5016106;28;20179;-67
2023/05/08 11:57:01;;;;;;;9.67;8.10;;;;;;;;;;5033923;28;20206;-67
2023/05/08 11:59:27;;;;;;;8.73;7.70;;;;;;;;;;5033674;28;20288;-67
2023/05/08 12:01:53;;;;;;;13.07;7.83;;;;;;;;;;5015944;28;20657;-68
2023/05/08 12:04:19;;;;;;;10.43;8.23;;;;;;;;;;5033677;28;20555;-67
2023/05/08 12:06:47;;;;;;;10.67;8.43;;;;;;;;;;5015831;28;20186;-67
2023/05/08 12:09:17;;;;;;;11.87;8.77;;;;;;;;;;5033297;28;20203;-67
2023/05/08 12:11:44;;;;;;;10.90;8.60;;;;;;;;;;5015450;28;20559;-68
2023/05/08 12:14:10;;;;;;;9.20;7.63;;;;;;;;;;5033479;28;20203;-68
2023/05/08 12:16:37;;;;;;;10.07;8.17;;;;;;;;;;5015338;28;20225;-68
2023/05/08 12:19:03;;;;;;;10.03;8.83;;;;;;;;;;5015427;28;20186;-67
2023/05/08 12:21:29;;;;;;;9.60;8.63;;;;;;;;;;5033666;28;20175;-68
2023/05/08 12:23:55;;;;;;;10.10;8.00;;;;;;;;;;5015515;28;20229;-68
2023/05/08 12:26:21;;;;;;;10.37;8.67;;;;;;;;;;5015680;28;20179;-68
2023/05/08 12:28:53;;;;;;;11.07;7.97;;;;;;;;;;5033605;28;20186;-68
2023/05/08 12:31:19;;;;;;;7.93;6.83;;;;;;;;;;5015307;28;20592;-68
2023/05/08 12:33:45;;;;;;;9.57;6.67;;;;;;;;;;5032996;28;20179;-68
2023/05/08 12:36:11;;;;;;;7.30;6.63;;;;;;;;;;5033281;28;20217;-68
2023/05/08 12:38:37;;;;;;;8.77;5.30;;;;;;;;;;5033532;28;20227;-68
2023/05/08 12:41:05;;;;;;;7.23;6.37;;;;;;;;;;5039362;28;20202;-68
2023/05/08 12:43:35;;;;;;;10.47;6.17;;;;;;;;;;5021598;28;20182;-68
2023/05/08 12:46:01;;;;;;;8.93;5.53;;;;;;;;;;5039540;28;20174;-68
2023/05/08 12:48:27;;;;;;;7.47;5.17;;;;;;;;;;5039498;28;20585;-68
2023/05/08 12:50:54;;;;;;;8.50;6.13;;;;;;;;;;5021677;28;20570;-68
2023/05/08 12:53:21;;;;;;;8.57;5.70;;;;;;;;;;5021710;28;20282;-68
2023/05/08 12:55:52;;;;;;;8.10;5.40;;;;;;;;;;5021657;28;20629;-67
2023/05/08 12:58:18;;;;;;;7.80;4.70;;;;;;;;;;5021698;28;20585;-68
2023/05/08 13:00:48;;;;;;;5.17;4.67;;;;;;;;;;5021612;28;20294;-67
2023/05/08 13:03:23;;;;;;;5.40;4.90;;;;;;;;;;5039440;28;20221;-68
2023/05/08 13:05:49;;;;;;;9.48;5.30;;;;;;;;;;5021618;28;20100;-68
2023/05/08 13:08:15;;;;;;;5.43;4.53;;;;;;;;;;5021598;28;20649;-68
2023/05/08 13:10:45;;;;;;;6.17;4.57;;;;;;;;;;5021636;28;20209;-68
2023/05/08 13:13:11;;;;;;;5.13;4.27;;;;;;;;;;5022144;28;20562;-68
2023/05/08 13:15:36;;;;;;;5.80;4.63;;;;;;;;;;5039913;28;20317;-67
2023/05/08 13:18:02;;;;;;;5.03;4.53;;;;;;;;;;5039163;28;20206;-69
2023/05/08 13:20:28;;;;;;;5.80;4.50;;;;;;;;;;5021802;28;20210;-67
2023/05/08 13:22:54;;;;;;;4.80;4.30;;;;;;;;;;5021639;28;20653;-68
2023/05/08 13:25:20;;;;;;;4.70;4.30;;;;;;;;;;5039302;28;20213;-67
2023/05/08 13:27:46;;;;;;;7.57;4.77;;;;;;;;;;5021506;28;20644;-67
2023/05/08 13:30:14;;;;;;;9.53;5.40;;;;;;;;;;5039709;28;20582;-70
2023/05/08 13:32:40;;;;;;;5.03;4.50;;;;;;;;;;5039156;28;20199;-67
2023/05/08 13:35:06;;;;;;;6.43;3.93;;;;;;;;;;5039091;28;20183;-67
2023/05/08 13:37:32;;;;;;;4.20;3.37;;;;;;;;;;5039037;28;20591;-67
2023/05/08 13:39:58;;;;;;;6.10;4.17;;;;;;;;;;5038954;28;20277;-67
2023/05/08 13:42:24;;;;;;;4.77;3.93;;;;;;;;;;5039281;28;20202;-67
2023/05/08 13:44:49;;;;;;;3.63;3.33;;;;;;;;;;5021292;28;20567;-67
2023/05/08 13:47:15;;;;;;;;;;;;;;;;;;5039443;28;20449;-67
2023/05/08 13:49:43;;;;;;;3.93;3.53;;;;;;;;;;5037673;28;20395;-67
2023/05/08 13:52:09;;;;;;;3.23;2.93;;;;;;;;;;5035869;28;20249;-67
2023/05/08 13:54:35;;;;;;;5.80;4.00;;;;;;;;;;5035856;28;20593;-67
2023/05/08 13:57:01;;;;;;;7.43;4.07;;;;;;;;;;5017983;28;20604;-69
2023/05/08 13:59:27;;;;;;;3.83;3.53;;;;;;;;;;5035884;28;20582;-67
2023/05/08 14:01:53;;;;;;;5.93;3.43;;;;;;;;;;5036087;28;20175;-67
2023/05/08 14:04:19;;;;;;;;;;;;;;;;;;5018508;28;20026;-67
2023/05/08 14:06:45;;;;;;;3.33;3.03;;;;;;;;;;5035782;28;20541;-68
2023/05/08 14:17:33;;;;;;;4.63;3.20;;;;;;;;;;5735151;22;20271;-66
2023/05/08 14:19:59;;;;;;;6.25;3.45;;;;;;;;;;5056779;28;20226;-66
2023/05/08 14:22:25;;;;;;;3.90;3.60;;;;;;;;;;5057920;28;20229;-67
2023/05/08 14:24:52;;;;;;;5.32;4.25;;;;;;;;;;5057033;28;20175;-65
2023/05/08 14:27:18;;;;;;;4.10;3.70;;;;;;;;;;5037597;28;20323;-65
2023/05/08 14:29:44;;;;;;;5.13;4.17;;;;;;;;;;5037577;28;20571;-65
2023/05/08 14:32:10;;;;;;;5.00;4.45;;;;;;;;;;5037452;28;20269;-66
2023/05/08 14:34:36;;;;;;;4.32;3.95;;;;;;;;;;5055313;28;20236;-65
2023/05/08 14:37:02;;;;;;;4.00;3.55;;;;;;;;;;5055083;28;20694;-66
2023/05/08 14:39:28;;;;;;;5.63;5.03;;;;;;;;;;5054912;28;20610;-65